createdAt,value
2023-03-25T00:00:40.476Z,14.33
2023-03-25T00:03:09.349Z,14.33
2023-03-25T00:05:40.665Z,10.37
2023-03-25T00:08:09.717Z,17.27
2023-03-25T00:10:37.834Z,17.37
2023-03-25T00:13:06.976Z,12.20
2023-03-25T00:15:34.953Z,12.70
2023-03-25T00:18:03.068Z,15.37
2023-03-25T00:20:32.650Z,13.03
2023-03-25T00:23:00.475Z,16.10
2023-03-25T00:25:29.833Z,14.03
2023-03-25T00:27:57.618Z,13.27
2023-03-25T00:30:25.296Z,13.53
2023-03-25T00:32:53.742Z,15.20
2023-03-25T00:35:21.898Z,14.50
2023-03-25T00:38:00.086Z,15.33
2023-03-25T00:40:32.672Z,17.30
2023-03-25T00:43:00.321Z,15.17
2023-03-25T00:45:28.032Z,16.67
2023-03-25T00:47:55.818Z,20.43
2023-03-25T00:50:23.445Z,18.33
2023-03-25T00:52:51.690Z,17.50
2023-03-25T00:55:19.677Z,17.80
2023-03-25T00:57:48.752Z,15.20
2023-03-25T01:00:17.558Z,18.27
2023-03-25T01:02:46.260Z,20.33
2023-03-25T01:05:14.158Z,16.57
2023-03-25T01:07:42.839Z,18.10
2023-03-25T01:10:11.807Z,18.50
2023-03-25T01:12:39.556Z,16.03
2023-03-25T01:15:11.200Z,15.43
2023-03-25T01:17:38.946Z,16.90
2023-03-25T01:20:08.989Z,19.40
2023-03-25T01:22:36.994Z,13.43
2023-03-25T01:25:04.994Z,18.93
2023-03-25T01:27:32.688Z,12.43
2023-03-25T01:30:00.530Z,13.77
2023-03-25T01:32:29.669Z,12.23
2023-03-25T01:34:57.404Z,13.57
2023-03-25T01:37:27.408Z,13.57
2023-03-25T01:39:55.040Z,15.00
2023-03-25T01:42:22.808Z,11.90
2023-03-25T01:45:10.013Z,11.07
2023-03-25T01:47:39.160Z,12.60
2023-03-25T01:50:08.671Z,10.70
2023-03-25T01:52:36.377Z,15.23
2023-03-25T01:55:04.089Z,12.33
2023-03-25T01:57:32.410Z,11.80
2023-03-25T02:00:00.549Z,17.23
2023-03-25T02:02:35.115Z,10.43
2023-03-25T02:05:08.001Z,12.43
2023-03-25T02:07:36.752Z,13.03
2023-03-25T02:10:06.784Z,21.33
2023-03-25T02:12:34.562Z,16.17
2023-03-25T02:15:03.479Z,17.63
2023-03-25T02:17:36.561Z,19.07
2023-03-25T02:20:21.858Z,20.37
2023-03-25T02:22:57.390Z,17.60
2023-03-25T02:25:40.959Z,21.83
2023-03-25T02:28:12.940Z,24.27
2023-03-25T02:30:52.438Z,21.53
2023-03-25T02:33:37.780Z,18.97
2023-03-25T02:36:30.140Z,19.90
2023-03-25T02:39:02.138Z,17.40
2023-03-25T02:41:31.487Z,19.57
2023-03-25T02:44:01.331Z,13.77
2023-03-25T02:46:30.436Z,16.03
2023-03-25T02:49:00.623Z,16.20
2023-03-25T02:51:30.096Z,17.60
2023-03-25T02:54:01.183Z,17.90
2023-03-25T02:56:33.073Z,14.17
2023-03-25T02:59:02.030Z,14.73
2023-03-25T03:01:29.685Z,17.30
2023-03-25T03:03:57.676Z,12.77
2023-03-25T03:06:25.954Z,12.87
2023-03-25T03:09:09.503Z,12.33
2023-03-25T03:11:42.054Z,10.93
2023-03-25T03:14:16.799Z,12.10
2023-03-25T03:16:50.183Z,17.40
2023-03-25T03:19:27.698Z,9.43
2023-03-25T03:22:02.174Z,12.90
2023-03-25T03:24:32.920Z,11.47
2023-03-25T03:27:03.285Z,8.83
2023-03-25T03:29:33.596Z,11.83
2023-03-25T03:32:07.375Z,9.80
2023-03-25T03:34:45.179Z,10.37
2023-03-25T03:37:14.685Z,9.07
2023-03-25T03:39:44.787Z,12.47
2023-03-25T03:42:17.334Z,11.90
2023-03-25T03:44:47.853Z,12.87
2023-03-25T03:47:17.311Z,10.73
2023-03-25T03:49:48.351Z,19.00
2023-03-25T03:52:18.762Z,15.27
2023-03-25T03:54:49.439Z,21.07
2023-03-25T03:57:21.041Z,18.00
2023-03-25T03:59:51.667Z,14.73
2023-03-25T04:02:24.434Z,17.17
2023-03-25T04:04:54.006Z,17.67
2023-03-25T04:07:23.632Z,17.80
2023-03-25T04:09:56.892Z,18.33
2023-03-25T04:12:28.033Z,18.50
2023-03-25T04:14:55.927Z,17.30
2023-03-25T04:17:24.311Z,14.43
2023-03-25T04:19:53.782Z,17.53
2023-03-25T04:22:21.928Z,21.13
2023-03-25T04:24:58.191Z,16.53
2023-03-25T04:27:30.004Z,14.10
2023-03-25T04:29:58.367Z,18.10
2023-03-25T04:32:27.989Z,12.10
2023-03-25T04:34:57.720Z,11.63
2023-03-25T04:37:25.640Z,14.47
2023-03-25T04:39:53.946Z,13.63
2023-03-25T04:42:21.654Z,11.73
2023-03-25T04:44:50.639Z,14.47
2023-03-25T04:47:20.851Z,14.23
2023-03-25T04:49:48.684Z,15.43
2023-03-25T04:52:17.722Z,14.70
2023-03-25T04:54:46.436Z,10.27
2023-03-25T04:57:15.444Z,13.30
2023-03-25T04:59:43.196Z,12.23
2023-03-25T05:02:13.796Z,12.33
2023-03-25T05:04:43.148Z,14.53
2023-03-25T05:07:10.982Z,10.77
2023-03-25T05:09:39.060Z,13.20
2023-03-25T05:12:11.423Z,11.80
2023-03-25T05:14:39.285Z,9.97
2023-03-25T05:17:06.913Z,10.47
2023-03-25T05:19:43.965Z,10.10
2023-03-25T05:22:13.159Z,13.03
2023-03-25T05:24:45.374Z,9.90
2023-03-25T05:27:13.074Z,9.80
2023-03-25T05:29:40.915Z,10.70
2023-03-25T05:32:08.926Z,10.10
2023-03-25T05:34:38.724Z,9.47
2023-03-25T05:37:06.714Z,11.07
2023-03-25T05:39:34.807Z,11.00
2023-03-25T05:42:06.705Z,11.67
2023-03-25T05:44:34.440Z,10.33
2023-03-25T05:47:02.305Z,11.70
2023-03-25T05:49:29.970Z,9.87
2023-03-25T05:52:00.167Z,10.07
2023-03-25T05:54:28.637Z,9.60
2023-03-25T05:56:56.349Z,12.90
2023-03-25T05:59:24.093Z,11.93
2023-03-25T06:01:51.773Z,14.60
2023-03-25T06:04:19.437Z,14.27
2023-03-25T06:06:47.664Z,17.63
2023-03-25T06:09:17.919Z,17.27
2023-03-25T06:11:53.433Z,21.67
2023-03-25T06:14:25.636Z,15.57
2023-03-25T06:16:53.383Z,14.33
2023-03-25T06:19:21.049Z,15.77
2023-03-25T06:21:51.603Z,17.43
2023-03-25T06:24:20.979Z,14.87
2023-03-25T06:26:48.661Z,23.27
2023-03-25T06:29:16.388Z,21.23
2023-03-25T06:31:44.112Z,23.70
2023-03-25T06:34:11.802Z,21.07
2023-03-25T06:36:39.440Z,18.83
2023-03-25T06:39:07.240Z,19.73
2023-03-25T06:41:38.112Z,20.10
2023-03-25T06:44:05.925Z,24.20
2023-03-25T06:46:33.686Z,20.20
2023-03-25T06:49:01.450Z,15.80
2023-03-25T06:51:29.120Z,23.97
2023-03-25T06:53:57.940Z,18.97
2023-03-25T06:56:25.589Z,21.57
2023-03-25T06:58:54.706Z,19.03
2023-03-25T07:01:22.523Z,17.83
2023-03-25T07:03:50.267Z,18.07
2023-03-25T07:06:18.752Z,18.70
2023-03-25T07:08:46.538Z,16.27
2023-03-25T07:11:15.650Z,16.47
2023-03-25T07:13:43.416Z,14.30
2023-03-25T07:16:14.575Z,13.67
2023-03-25T07:18:42.679Z,13.57
2023-03-25T07:21:10.443Z,16.77
2023-03-25T07:23:38.112Z,16.37
2023-03-25T07:26:06.041Z,13.63
2023-03-25T07:28:33.685Z,14.50
2023-03-25T07:31:01.512Z,17.47
2023-03-25T07:33:30.603Z,18.87
2023-03-25T07:35:58.321Z,18.53
2023-03-25T07:38:26.055Z,14.77
2023-03-25T07:40:53.762Z,15.50
2023-03-25T07:43:21.477Z,13.80
2023-03-25T07:45:49.211Z,8.87
2023-03-25T07:48:17.132Z,12.17
2023-03-25T07:50:49.391Z,20.40
2023-03-25T07:53:17.085Z,13.17
2023-03-25T07:55:45.684Z,12.47
2023-03-25T07:58:13.389Z,13.87
2023-03-25T08:00:41.291Z,13.60
2023-03-25T08:03:09.076Z,13.17
2023-03-25T08:05:37.865Z,12.23
2023-03-25T08:08:07.791Z,17.97
2023-03-25T08:10:35.964Z,12.83
2023-03-25T08:13:03.622Z,12.47
2023-03-25T08:15:31.347Z,12.67
2023-03-25T08:17:58.995Z,12.17
2023-03-25T08:20:27.059Z,14.90
2023-03-25T08:22:54.779Z,10.20
2023-03-25T08:25:23.789Z,12.37
2023-03-25T08:27:51.471Z,14.70
2023-03-25T08:30:19.244Z,12.77
2023-03-25T08:32:47.199Z,12.53
2023-03-25T08:35:14.892Z,12.60
2023-03-25T08:37:42.662Z,13.83
2023-03-25T08:40:10.584Z,15.00
2023-03-25T08:42:39.724Z,10.80
2023-03-25T08:45:08.025Z,12.63
2023-03-25T08:47:35.843Z,12.47
2023-03-25T08:50:03.658Z,12.70
2023-03-25T08:52:31.430Z,14.00
2023-03-25T08:54:59.108Z,10.17
2023-03-25T08:57:26.860Z,10.27
2023-03-25T08:59:56.006Z,12.70
2023-03-25T09:02:23.669Z,11.80
2023-03-25T09:04:51.352Z,12.97
2023-03-25T09:07:19.971Z,11.63
2023-03-25T09:09:48.677Z,13.00
2023-03-25T09:12:16.293Z,11.00
2023-03-25T09:14:44.308Z,10.73
2023-03-25T09:17:13.305Z,10.40
2023-03-25T09:19:41.071Z,11.33
2023-03-25T09:22:09.172Z,10.87
2023-03-25T09:24:36.916Z,10.90
2023-03-25T09:27:04.686Z,10.50
2023-03-25T09:29:32.454Z,15.87
2023-03-25T09:32:00.067Z,8.40
2023-03-25T09:34:29.547Z,10.70
2023-03-25T09:36:57.233Z,7.50
2023-03-25T09:39:24.877Z,8.17
2023-03-25T09:42:01.328Z,9.43
2023-03-25T09:44:30.568Z,7.60
2023-03-25T09:47:00.669Z,10.03
2023-03-25T09:49:34.899Z,7.10
2023-03-25T09:52:02.700Z,10.27
2023-03-25T09:54:31.924Z,8.20
2023-03-25T09:57:02.417Z,6.97
2023-03-25T09:59:37.136Z,8.73
2023-03-25T10:02:08.021Z,7.87
2023-03-25T10:04:50.586Z,7.07
2023-03-25T10:07:31.284Z,9.00
2023-03-25T10:10:03.107Z,8.40
2023-03-25T10:12:36.211Z,7.20
2023-03-25T10:15:07.273Z,5.97
2023-03-25T10:17:38.719Z,6.73
2023-03-25T10:20:13.064Z,6.70
2023-03-25T10:22:47.392Z,8.33
2023-03-25T10:25:16.833Z,8.83
2023-03-25T10:27:46.231Z,6.83
2023-03-25T10:30:16.127Z,5.73
2023-03-25T10:32:45.657Z,5.57
2023-03-25T10:35:17.135Z,4.50
2023-03-25T10:37:47.858Z,3.90
2023-03-25T10:40:21.414Z,3.93
2023-03-25T10:42:57.226Z,5.07
2023-03-25T10:45:25.781Z,4.13
2023-03-25T10:47:55.548Z,4.70
2023-03-25T10:50:23.938Z,9.43
2023-03-25T10:52:55.310Z,4.17
2023-03-25T10:55:25.359Z,5.30
2023-03-25T10:57:53.705Z,4.20
2023-03-25T11:00:24.742Z,4.50
2023-03-25T11:02:52.492Z,6.27
2023-03-25T11:05:21.265Z,4.63
2023-03-25T11:07:51.121Z,3.97
2023-03-25T11:10:21.826Z,6.47
2023-03-25T11:12:51.789Z,5.73
2023-03-25T11:15:21.783Z,7.10
2023-03-25T11:17:57.398Z,6.10
2023-03-25T11:20:27.725Z,5.50
2023-03-25T11:22:56.618Z,4.73
2023-03-25T11:25:27.708Z,4.67
2023-03-25T11:27:57.336Z,4.07
2023-03-25T11:30:26.017Z,6.07
2023-03-25T11:33:01.140Z,4.30
2023-03-25T11:35:30.152Z,7.10
2023-03-25T11:37:58.844Z,4.33
2023-03-25T11:40:28.432Z,7.17
2023-03-25T11:42:57.082Z,3.53
2023-03-25T11:45:25.603Z,3.33
2023-03-25T11:47:53.819Z,6.63
2023-03-25T11:50:23.270Z,7.27
2023-03-25T11:52:52.982Z,8.37
2023-03-25T11:55:23.812Z,6.57
2023-03-25T11:57:53.818Z,3.90
2023-03-25T12:00:27.619Z,4.17
2023-03-25T12:03:00.427Z,4.23
2023-03-25T12:05:28.317Z,3.30
2023-03-25T12:08:01.940Z,3.30
2023-03-25T12:10:39.574Z,11.73
2023-03-25T12:13:10.170Z,6.80
2023-03-25T12:15:41.683Z,3.80
2023-03-25T12:18:27.316Z,3.97
2023-03-25T12:21:02.395Z,3.55
2023-03-25T12:23:33.914Z,3.17
2023-03-25T12:26:07.364Z,4.17
2023-03-25T12:28:55.572Z,5.30
2023-03-25T12:31:32.452Z,5.23
2023-03-25T12:34:05.924Z,3.63
2023-03-25T12:36:42.082Z,2.93
2023-03-25T12:39:39.522Z,4.13
2023-03-25T12:42:13.375Z,5.07
2023-03-25T12:44:48.591Z,3.07
2023-03-25T12:47:17.363Z,3.13
2023-03-25T12:49:52.226Z,4.50
2023-03-25T12:52:23.159Z,3.10
2023-03-25T12:54:57.504Z,2.73
2023-03-25T12:57:31.890Z,3.30
2023-03-25T13:00:08.051Z,3.10
2023-03-25T13:02:53.345Z,4.30
2023-03-25T13:05:23.169Z,3.23
2023-03-25T13:07:54.175Z,3.70
2023-03-25T13:10:22.742Z,2.90
2023-03-25T13:12:52.183Z,4.10
2023-03-25T13:15:27.418Z,5.73
2023-03-25T13:17:57.899Z,6.50
2023-03-25T13:20:26.507Z,3.07
2023-03-25T13:22:59.721Z,4.43
2023-03-25T13:25:28.199Z,3.67
2023-03-25T13:27:57.320Z,4.40
2023-03-25T13:30:32.871Z,3.77
2023-03-25T13:33:04.933Z,5.63
2023-03-25T13:35:37.612Z,3.80
2023-03-25T13:38:08.038Z,4.23
2023-03-25T13:40:39.194Z,3.50
2023-03-25T13:43:08.668Z,2.93
2023-03-25T13:45:46.082Z,6.70
2023-03-25T13:48:18.024Z,8.87
2023-03-25T13:50:45.920Z,4.40
2023-03-25T13:53:17.150Z,3.83
2023-03-25T13:55:46.671Z,3.57
2023-03-25T13:58:19.429Z,4.13
2023-03-25T14:01:04.862Z,5.70
2023-03-25T14:03:44.284Z,6.30
2023-03-25T14:06:35.936Z,4.77
2023-03-25T14:09:12.482Z,3.70
2023-03-25T14:11:42.202Z,3.47
2023-03-25T14:14:13.014Z,4.50
2023-03-25T14:16:44.460Z,3.70
2023-03-25T14:19:16.901Z,3.60
2023-03-25T14:21:45.759Z,3.57
2023-03-25T14:24:15.789Z,6.03
2023-03-25T14:26:45.550Z,2.60
2023-03-25T14:29:20.321Z,4.33
2023-03-25T14:32:01.092Z,4.50
2023-03-25T14:34:30.151Z,4.60
2023-03-25T14:37:16.914Z,3.80
2023-03-25T14:39:45.503Z,4.13
2023-03-25T14:42:24.579Z,6.53
2023-03-25T14:44:54.636Z,5.03
2023-03-25T14:47:30.585Z,4.97
2023-03-25T14:50:05.924Z,4.27
2023-03-25T14:52:34.598Z,7.60
2023-03-25T14:55:06.329Z,5.73
2023-03-25T14:57:40.890Z,9.23
2023-03-25T15:00:13.647Z,4.70
2023-03-25T15:02:42.493Z,5.17
2023-03-25T15:05:18.704Z,6.90
2023-03-25T15:07:48.057Z,4.70
2023-03-25T15:10:25.538Z,9.53
2023-03-25T15:12:54.172Z,7.17
2023-03-25T15:15:29.246Z,6.03
2023-03-25T15:17:58.417Z,5.47
2023-03-25T15:20:31.885Z,7.77
2023-03-25T15:23:18.118Z,5.67
2023-03-25T15:25:47.407Z,6.33
2023-03-25T15:28:19.515Z,6.50
2023-03-25T15:30:58.242Z,5.83
2023-03-25T15:33:39.010Z,4.60
2023-03-25T15:36:29.425Z,6.73
2023-03-25T15:39:04.201Z,6.43
2023-03-25T15:41:47.156Z,5.30
2023-03-25T15:44:41.613Z,4.67
2023-03-25T15:47:36.247Z,6.67
2023-03-25T15:50:19.953Z,6.20
2023-03-25T15:52:59.299Z,6.83
2023-03-25T15:55:29.851Z,6.97
2023-03-25T15:58:00.398Z,6.20
2023-03-25T16:00:30.563Z,8.67
2023-03-25T16:03:03.662Z,5.73
2023-03-25T16:05:32.222Z,5.37
2023-03-25T16:08:06.469Z,6.83
2023-03-25T16:10:36.402Z,5.40
2023-03-25T16:13:05.506Z,6.43
2023-03-25T16:15:34.626Z,6.17
2023-03-25T16:18:02.974Z,5.53
2023-03-25T16:20:31.999Z,4.83
2023-03-25T16:23:03.310Z,4.50
2023-03-25T16:25:35.570Z,5.77
2023-03-25T16:28:04.072Z,5.13
2023-03-25T16:30:36.817Z,7.67
2023-03-25T16:33:17.913Z,4.50
2023-03-25T16:35:46.897Z,6.00
2023-03-25T16:38:17.514Z,6.63
2023-03-25T16:40:47.012Z,5.60
2023-03-25T16:43:16.662Z,5.67
2023-03-25T16:45:44.732Z,7.97
2023-03-25T16:48:15.403Z,8.50
2023-03-25T16:50:43.382Z,7.03
2023-03-25T16:53:13.075Z,8.13
2023-03-25T16:55:48.985Z,8.37
2023-03-25T16:58:18.345Z,6.83
2023-03-25T17:00:48.220Z,8.43
2023-03-25T17:03:17.984Z,8.20
2023-03-25T17:06:01.010Z,9.83
2023-03-25T17:08:28.867Z,8.53
2023-03-25T17:10:59.531Z,7.27
2023-03-25T17:13:28.593Z,7.97
2023-03-25T17:15:56.306Z,10.40
2023-03-25T17:18:26.643Z,15.00
2023-03-25T17:20:57.880Z,17.93
2023-03-25T17:23:28.493Z,9.43
2023-03-25T17:25:59.315Z,11.77
2023-03-25T17:28:29.618Z,10.47
2023-03-25T17:30:57.641Z,13.50
2023-03-25T17:33:35.351Z,14.23
2023-03-25T17:36:03.918Z,14.40
2023-03-25T17:38:34.904Z,15.20
2023-03-25T17:41:04.806Z,14.17
2023-03-25T17:43:33.106Z,14.83
2023-03-25T17:46:01.767Z,19.60
2023-03-25T17:48:29.588Z,15.43
2023-03-25T17:50:58.113Z,17.03
2023-03-25T17:53:26.262Z,17.30
2023-03-25T17:55:54.117Z,20.13
2023-03-25T17:58:23.727Z,11.80
2023-03-25T18:00:52.420Z,11.47
2023-03-25T18:03:22.891Z,13.50
2023-03-25T18:05:54.110Z,11.63
2023-03-25T18:08:23.044Z,13.73
2023-03-25T18:10:51.280Z,16.13
2023-03-25T18:13:19.876Z,18.93
2023-03-25T18:15:49.400Z,19.00
2023-03-25T18:18:18.393Z,17.10
2023-03-25T18:20:47.192Z,14.77
2023-03-25T18:23:14.910Z,18.97
2023-03-25T18:25:42.907Z,12.37
2023-03-25T18:28:11.526Z,19.20
2023-03-25T18:30:42.651Z,14.73
2023-03-25T18:33:11.877Z,14.93
2023-03-25T18:35:39.614Z,17.77
2023-03-25T18:38:07.256Z,15.90
2023-03-25T18:40:35.655Z,18.10
2023-03-25T18:43:04.252Z,17.90
2023-03-25T18:45:32.389Z,22.63
2023-03-25T18:48:00.180Z,22.07
2023-03-25T18:50:31.676Z,21.73
2023-03-25T18:52:59.712Z,18.80
2023-03-25T18:55:28.597Z,19.07
2023-03-25T18:57:56.753Z,16.03
2023-03-25T19:00:25.839Z,16.20
2023-03-25T19:02:54.022Z,22.47
2023-03-25T19:05:21.815Z,23.47
2023-03-25T19:07:51.184Z,21.03
2023-03-25T19:10:20.509Z,18.77
2023-03-25T19:12:48.304Z,23.80
2023-03-25T19:15:17.179Z,21.07
2023-03-25T19:17:45.294Z,19.60
2023-03-25T19:20:17.595Z,21.47
2023-03-25T19:22:45.921Z,23.47
2023-03-25T19:25:16.409Z,24.07
2023-03-25T19:27:44.424Z,23.97
2023-03-25T19:30:13.451Z,24.13
2023-03-25T19:32:42.754Z,21.90
2023-03-25T19:35:11.495Z,25.33
2023-03-25T19:37:39.457Z,25.87
2023-03-25T19:40:08.727Z,19.27
2023-03-25T19:42:38.413Z,20.90
2023-03-25T19:45:06.928Z,13.33
2023-03-25T19:47:34.713Z,20.00
2023-03-25T19:50:02.551Z,19.60
2023-03-25T19:52:30.214Z,17.37
2023-03-25T19:54:58.155Z,13.93
2023-03-25T19:57:26.685Z,17.97
2023-03-25T19:59:56.564Z,14.03
2023-03-25T20:02:24.341Z,17.07
2023-03-25T20:04:52.577Z,13.03
2023-03-25T20:07:20.488Z,13.43
2023-03-25T20:09:48.311Z,12.83
2023-03-25T20:12:16.210Z,12.43
2023-03-25T20:14:43.942Z,12.30
2023-03-25T20:17:12.948Z,16.50
2023-03-25T20:19:40.710Z,12.47
2023-03-25T20:22:21.969Z,11.97
2023-03-25T20:24:52.322Z,14.07
2023-03-25T20:27:19.949Z,12.33
2023-03-25T20:29:47.807Z,13.97
2023-03-25T20:32:16.900Z,11.47
2023-03-25T20:34:44.587Z,13.33
2023-03-25T20:37:12.249Z,8.13
2023-03-25T20:39:40.422Z,6.37
2023-03-25T20:42:08.158Z,10.07
2023-03-25T20:44:35.781Z,9.63
2023-03-25T20:47:03.642Z,13.13
2023-03-25T20:49:32.953Z,13.93
2023-03-25T20:52:00.731Z,11.37
2023-03-25T20:54:28.641Z,12.17
2023-03-25T20:56:56.387Z,15.87
2023-03-25T20:59:24.141Z,16.77
2023-03-25T21:01:53.744Z,14.53
2023-03-25T21:04:21.437Z,16.40
2023-03-25T21:06:50.525Z,17.50
2023-03-25T21:09:18.580Z,14.13
2023-03-25T21:11:52.749Z,14.90
2023-03-25T21:14:20.697Z,14.17
2023-03-25T21:16:48.714Z,19.33
2023-03-25T21:19:16.566Z,20.23
2023-03-25T21:21:44.382Z,23.67
2023-03-25T21:24:14.742Z,25.90
2023-03-25T21:26:42.411Z,25.30
2023-03-25T21:29:10.140Z,28.43
2023-03-25T21:31:37.790Z,23.07
2023-03-25T21:34:05.500Z,25.47
2023-03-25T21:36:33.437Z,22.27
2023-03-25T21:39:01.780Z,22.37
2023-03-25T21:41:31.332Z,20.00
2023-03-25T21:43:59.035Z,22.93
2023-03-25T21:46:27.709Z,16.70
2023-03-25T21:48:58.544Z,17.90
2023-03-25T21:51:26.697Z,19.13
2023-03-25T21:53:55.503Z,15.10
2023-03-25T21:56:25.119Z,7.67
2023-03-25T21:58:54.283Z,12.67
2023-03-25T22:01:23.222Z,11.37
2023-03-25T22:03:55.355Z,9.00
2023-03-25T22:06:24.375Z,10.43
2023-03-25T22:08:52.069Z,8.77
2023-03-25T22:11:20.599Z,9.77
2023-03-25T22:13:48.403Z,10.10
2023-03-25T22:16:18.322Z,8.37
2023-03-25T22:18:46.489Z,9.43
2023-03-25T22:21:15.736Z,8.23
2023-03-25T22:23:45.059Z,9.63
2023-03-25T22:26:13.127Z,8.13
2023-03-25T22:28:41.552Z,6.63
2023-03-25T22:31:10.157Z,8.77
2023-03-25T22:33:39.901Z,7.00
2023-03-25T22:36:11.968Z,5.77
2023-03-25T22:38:40.712Z,6.07
2023-03-25T22:41:09.059Z,6.37
2023-03-25T22:43:36.824Z,4.90
2023-03-25T22:46:05.112Z,7.67
2023-03-25T22:48:33.090Z,5.53
2023-03-25T22:51:02.560Z,6.07
2023-03-25T22:53:30.384Z,4.90
2023-03-25T22:55:58.421Z,4.97
2023-03-25T22:58:26.753Z,7.37
2023-03-25T23:00:55.291Z,6.90
2023-03-25T23:03:23.445Z,4.33
2023-03-25T23:05:58.711Z,4.97
2023-03-25T23:08:30.140Z,4.43
2023-03-25T23:10:58.975Z,3.47
2023-03-25T23:13:26.695Z,3.53
2023-03-25T23:15:58.232Z,3.93
2023-03-25T23:18:26.286Z,2.60
2023-03-25T23:20:54.050Z,2.40
2023-03-25T23:23:23.997Z,2.30
2023-03-25T23:26:03.792Z,1.77
2023-03-25T23:28:34.422Z,2.80
2023-03-25T23:31:03.436Z,1.90
2023-03-25T23:33:31.656Z,4.70
2023-03-25T23:36:00.416Z,2.10
2023-03-25T23:38:28.809Z,1.53
2023-03-25T23:41:00.234Z,1.30
2023-03-25T23:43:29.346Z,1.20
2023-03-25T23:45:57.179Z,1.33
2023-03-25T23:48:26.143Z,1.00
2023-03-25T23:50:54.136Z,1.00
2023-03-25T23:53:21.911Z,1.50
2023-03-25T23:55:51.370Z,1.00
2023-03-25T23:58:19.797Z,0.60
